sensor_id;sensor_type;location;lat;lon;timestamp;temperature;humidity
20442;DHT22;10380;52.102;20.614;2023-08-20T00:01:27;22.30;99.90
20442;DHT22;10380;52.102;20.614;2023-08-20T00:03:55;22.30;99.90
20442;DHT22;10380;52.102;20.614;2023-08-20T00:06:22;21.90;99.90
20442;DHT22;10380;52.102;20.614;2023-08-20T00:08:50;22.30;99.90
20442;DHT22;10380;52.102;20.614;2023-08-20T00:16:12;22.00;99.90
20442;DHT22;10380;52.102;20.614;2023-08-20T00:18:39;22.10;99.90
20442;DHT22;10380;52.102;20.614;2023-08-20T00:21:07;22.20;99.90
20442;DHT22;10380;52.102;20.614;2023-08-20T00:23:35;22.00;99.90
20442;DHT22;10380;52.102;20.614;2023-08-20T00:31:00;22.00;99.90
20442;DHT22;10380;52.102;20.614;2023-08-20T00:38:22;22.10;99.90
20442;DHT22;10380;52.102;20.614;2023-08-20T00:45:44;22.10;99.90
20442;DHT22;10380;52.102;20.614;2023-08-20T00:50:40;21.90;99.90
20442;DHT22;10380;52.102;20.614;2023-08-20T00:53:09;22.10;99.90
20442;DHT22;10380;52.102;20.614;2023-08-20T00:58:04;21.90;99.90
20442;DHT22;10380;52.102;20.614;2023-08-20T01:00:31;21.90;99.90
20442;DHT22;10380;52.102;20.614;2023-08-20T01:05:26;21.80;99.90
20442;DHT22;10380;52.102;20.614;2023-08-20T01:15:46;21.90;99.90
20442;DHT22;10380;52.102;20.614;2023-08-20T01:18:13;21.90;99.90
20442;DHT22;10380;52.102;20.614;2023-08-20T01:20:49;21.60;99.90
20442;DHT22;10380;52.102;20.614;2023-08-20T01:28:55;21.10;99.90
20442;DHT22;10380;52.102;20.614;2023-08-20T01:31:22;21.80;99.90
20442;DHT22;10380;52.102;20.614;2023-08-20T01:33:51;21.60;99.90
20442;DHT22;10380;52.102;20.614;2023-08-20T01:36:22;21.80;99.90
20442;DHT22;10380;52.102;20.614;2023-08-20T01:41:16;21.60;99.90
20442;DHT22;10380;52.102;20.614;2023-08-20T01:46:10;21.80;99.90
20442;DHT22;10380;52.102;20.614;2023-08-20T01:48:37;21.50;99.90
20442;DHT22;10380;52.102;20.614;2023-08-20T01:53:31;21.60;99.90
20442;DHT22;10380;52.102;20.614;2023-08-20T01:55:58;21.80;99.90
20442;DHT22;10380;52.102;20.614;2023-08-20T02:03:19;21.20;99.90
20442;DHT22;10380;52.102;20.614;2023-08-20T02:22:58;21.60;99.90
20442;DHT22;10380;52.102;20.614;2023-08-20T02:30:20;21.20;99.90
20442;DHT22;10380;52.102;20.614;2023-08-20T02:35:14;21.30;99.90
20442;DHT22;10380;52.102;20.614;2023-08-20T02:42:38;21.10;99.90
20442;DHT22;10380;52.102;20.614;2023-08-20T02:54:55;21.30;99.90
20442;DHT22;10380;52.102;20.614;2023-08-20T02:57:21;21.00;99.90
20442;DHT22;10380;52.102;20.614;2023-08-20T03:04:43;21.10;99.90
20442;DHT22;10380;52.102;20.614;2023-08-20T03:07:10;21.20;99.90
20442;DHT22;10380;52.102;20.614;2023-08-20T03:09:37;21.00;99.90
20442;DHT22;10380;52.102;20.614;2023-08-20T03:21:53;20.70;99.90
20442;DHT22;10380;52.102;20.614;2023-08-20T03:24:20;20.70;99.90
20442;DHT22;10380;52.102;20.614;2023-08-20T03:34:09;21.00;99.90
20442;DHT22;10380;52.102;20.614;2023-08-20T03:39:03;21.00;99.90
20442;DHT22;10380;52.102;20.614;2023-08-20T03:43:58;21.00;99.90
20442;DHT22;10380;52.102;20.614;2023-08-20T03:46:24;20.80;99.90
20442;DHT22;10380;52.102;20.614;2023-08-20T03:48:51;20.90;99.90
20442;DHT22;10380;52.102;20.614;2023-08-20T03:56:13;21.10;99.90
20442;DHT22;10380;52.102;20.614;2023-08-20T03:58:40;21.10;99.90
20442;DHT22;10380;52.102;20.614;2023-08-20T04:03:35;21.10;99.90
20442;DHT22;10380;52.102;20.614;2023-08-20T04:08:29;21.20;99.90
20442;DHT22;10380;52.102;20.614;2023-08-20T04:13:23;20.90;99.90
20442;DHT22;10380;52.102;20.614;2023-08-20T04:15:51;21.10;99.90
20442;DHT22;10380;52.102;20.614;2023-08-20T04:18:18;20.90;99.90
20442;DHT22;10380;52.102;20.614;2023-08-20T04:20:45;20.80;99.90
20442;DHT22;10380;52.102;20.614;2023-08-20T04:25:39;21.30;99.90
20442;DHT22;10380;52.102;20.614;2023-08-20T04:28:07;20.80;99.90
20442;DHT22;10380;52.102;20.614;2023-08-20T04:30:36;21.30;99.90
20442;DHT22;10380;52.102;20.614;2023-08-20T04:45:20;21.80;99.90
20442;DHT22;10380;52.102;20.614;2023-08-20T04:52:45;21.70;99.90
20442;DHT22;10380;52.102;20.614;2023-08-20T04:55:12;21.90;99.90
20442;DHT22;10380;52.102;20.614;2023-08-20T04:57:39;21.60;99.90
20442;DHT22;10380;52.102;20.614;2023-08-20T05:00:06;22.00;99.90
20442;DHT22;10380;52.102;20.614;2023-08-20T05:05:02;22.00;99.90
20442;DHT22;10380;52.102;20.614;2023-08-20T05:14:51;22.40;99.90
20442;DHT22;10380;52.102;20.614;2023-08-20T05:22:12;22.70;99.90
20442;DHT22;10380;52.102;20.614;2023-08-20T05:24:39;22.40;99.90
20442;DHT22;10380;52.102;20.614;2023-08-20T05:27:13;22.60;99.90
20442;DHT22;10380;52.102;20.614;2023-08-20T05:32:13;22.80;99.90
20442;DHT22;10380;52.102;20.614;2023-08-20T05:34:41;22.90;99.90
20442;DHT22;10380;52.102;20.614;2023-08-20T05:39:43;22.90;99.90
20442;DHT22;10380;52.102;20.614;2023-08-20T05:42:11;22.90;99.90
20442;DHT22;10380;52.102;20.614;2023-08-20T05:44:38;23.40;99.90
20442;DHT22;10380;52.102;20.614;2023-08-20T06:04:16;23.80;99.90
20442;DHT22;10380;52.102;20.614;2023-08-20T06:06:45;24.10;99.90
20442;DHT22;10380;52.102;20.614;2023-08-20T06:11:39;24.20;99.90
20442;DHT22;10380;52.102;20.614;2023-08-20T06:14:07;24.30;99.90
20442;DHT22;10380;52.102;20.614;2023-08-20T06:23:58;24.50;99.90
20442;DHT22;10380;52.102;20.614;2023-08-20T06:33:47;25.00;99.90
20442;DHT22;10380;52.102;20.614;2023-08-20T06:36:14;24.80;99.90
20442;DHT22;10380;52.102;20.614;2023-08-20T06:38:42;25.20;99.90
20442;DHT22;10380;52.102;20.614;2023-08-20T06:41:09;25.10;99.90
20442;DHT22;10380;52.102;20.614;2023-08-20T06:48:30;25.50;99.90
20442;DHT22;10380;52.102;20.614;2023-08-20T07:05:41;25.50;99.90
20442;DHT22;10380;52.102;20.614;2023-08-20T07:13:02;26.30;99.90
20442;DHT22;10380;52.102;20.614;2023-08-20T07:30:13;26.50;99.90
20442;DHT22;10380;52.102;20.614;2023-08-20T07:35:07;28.50;99.90
20442;DHT22;10380;52.102;20.614;2023-08-20T07:40:05;26.90;99.90
20442;DHT22;10380;52.102;20.614;2023-08-20T07:52:23;27.30;99.90
20442;DHT22;10380;52.102;20.614;2023-08-20T08:12:03;27.60;99.90
20442;DHT22;10380;52.102;20.614;2023-08-20T08:41:35;28.10;99.90
20442;DHT22;10380;52.102;20.614;2023-08-20T08:44:02;27.80;99.90
20442;DHT22;10380;52.102;20.614;2023-08-20T08:51:25;28.40;99.90
20442;DHT22;10380;52.102;20.614;2023-08-20T09:13:39;28.90;99.90
20442;DHT22;10380;52.102;20.614;2023-08-20T09:16:09;28.80;99.90
20442;DHT22;10380;52.102;20.614;2023-08-20T09:21:08;28.80;99.90
20442;DHT22;10380;52.102;20.614;2023-08-20T09:23:36;28.80;99.90
20442;DHT22;10380;52.102;20.614;2023-08-20T09:26:04;28.90;99.90
20442;DHT22;10380;52.102;20.614;2023-08-20T09:28:44;29.30;99.90
20442;DHT22;10380;52.102;20.614;2023-08-20T09:33:53;28.90;99.90
20442;DHT22;10380;52.102;20.614;2023-08-20T09:36:33;29.00;99.90
20442;DHT22;10380;52.102;20.614;2023-08-20T09:39:03;29.00;99.90
20442;DHT22;10380;52.102;20.614;2023-08-20T09:46:27;29.20;99.90
20442;DHT22;10380;52.102;20.614;2023-08-20T09:51:27;28.70;99.90
20442;DHT22;10380;52.102;20.614;2023-08-20T09:54:01;29.30;99.90
20442;DHT22;10380;52.102;20.614;2023-08-20T09:56:30;29.50;99.90
20442;DHT22;10380;52.102;20.614;2023-08-20T10:01:26;29.50;99.90
20442;DHT22;10380;52.102;20.614;2023-08-20T10:03:54;29.60;99.90
20442;DHT22;10380;52.102;20.614;2023-08-20T10:08:50;29.70;99.90
20442;DHT22;10380;52.102;20.614;2023-08-20T10:21:09;29.80;99.90
20442;DHT22;10380;52.102;20.614;2023-08-20T10:23:40;29.80;99.90
20442;DHT22;10380;52.102;20.614;2023-08-20T10:26:09;29.90;99.90
20442;DHT22;10380;52.102;20.614;2023-08-20T10:31:09;30.20;99.90
20442;DHT22;10380;52.102;20.614;2023-08-20T10:36:17;30.40;99.90
20442;DHT22;10380;52.102;20.614;2023-08-20T10:43:47;30.30;99.90
20442;DHT22;10380;52.102;20.614;2023-08-20T10:46:17;30.60;99.90
20442;DHT22;10380;52.102;20.614;2023-08-20T10:48:56;30.50;99.90
20442;DHT22;10380;52.102;20.614;2023-08-20T10:54:08;30.40;99.90
20442;DHT22;10380;52.102;20.614;2023-08-20T10:56:57;30.80;99.90
20442;DHT22;10380;52.102;20.614;2023-08-20T10:59:29;30.50;99.90
20442;DHT22;10380;52.102;20.614;2023-08-20T11:04:31;30.60;99.90
20442;DHT22;10380;52.102;20.614;2023-08-20T11:09:29;30.50;99.90
20442;DHT22;10380;52.102;20.614;2023-08-20T11:11:57;30.50;99.90
20442;DHT22;10380;52.102;20.614;2023-08-20T11:19:20;30.60;99.90
20442;DHT22;10380;52.102;20.614;2023-08-20T11:21:48;30.80;99.90
20442;DHT22;10380;52.102;20.614;2023-08-20T11:24:16;30.70;99.90
20442;DHT22;10380;52.102;20.614;2023-08-20T11:26:43;31.20;99.90
20442;DHT22;10380;52.102;20.614;2023-08-20T11:29:14;31.40;99.90
20442;DHT22;10380;52.102;20.614;2023-08-20T11:34:18;31.30;99.90
20442;DHT22;10380;52.102;20.614;2023-08-20T11:44:11;31.60;99.90
20442;DHT22;10380;52.102;20.614;2023-08-20T11:49:13;32.90;99.90
20442;DHT22;10380;52.102;20.614;2023-08-20T11:54:09;34.70;99.90
20442;DHT22;10380;52.102;20.614;2023-08-20T12:04:03;36.30;99.90
20442;DHT22;10380;52.102;20.614;2023-08-20T12:08:58;36.80;99.90
20442;DHT22;10380;52.102;20.614;2023-08-20T12:11:27;37.40;99.90
20442;DHT22;10380;52.102;20.614;2023-08-20T12:13:54;38.00;99.90
20442;DHT22;10380;52.102;20.614;2023-08-20T12:16:24;38.60;99.90
20442;DHT22;10380;52.102;20.614;2023-08-20T12:36:03;39.60;99.90
20442;DHT22;10380;52.102;20.614;2023-08-20T12:41:01;39.90;94.50
20442;DHT22;10380;52.102;20.614;2023-08-20T12:53:20;39.60;99.90
20442;DHT22;10380;52.102;20.614;2023-08-20T13:00:43;39.50;91.80
20442;DHT22;10380;52.102;20.614;2023-08-20T13:03:10;38.80;99.90
20442;DHT22;10380;52.102;20.614;2023-08-20T13:08:06;38.60;99.90
20442;DHT22;10380;52.102;20.614;2023-08-20T13:13:01;37.80;91.80
20442;DHT22;10380;52.102;20.614;2023-08-20T13:59:49;34.40;96.10
20442;DHT22;10380;52.102;20.614;2023-08-20T14:12:06;34.70;99.90
20442;DHT22;10380;52.102;20.614;2023-08-20T15:13:31;33.40;94.70
20442;DHT22;10380;52.102;20.614;2023-08-20T15:20:55;33.80;94.70
20442;DHT22;10380;52.102;20.614;2023-08-20T15:23:23;33.80;94.70
20442;DHT22;10380;52.102;20.614;2023-08-20T15:25:54;33.90;94.30
20442;DHT22;10380;52.102;20.614;2023-08-20T15:28:22;33.90;94.20
20442;DHT22;10380;52.102;20.614;2023-08-20T16:15:07;33.00;99.90
20442;DHT22;10380;52.102;20.614;2023-08-20T16:20:02;32.60;99.90
20442;DHT22;10380;52.102;20.614;2023-08-20T16:29:53;31.80;99.90
20442;DHT22;10380;52.102;20.614;2023-08-20T16:47:04;30.60;99.90
20442;DHT22;10380;52.102;20.614;2023-08-20T17:26:28;30.00;99.90
20442;DHT22;10380;52.102;20.614;2023-08-20T18:10:46;28.30;99.90
20442;DHT22;10380;52.102;20.614;2023-08-20T18:27:59;27.60;99.90
20442;DHT22;10380;52.102;20.614;2023-08-20T18:30:26;27.60;99.90
20442;DHT22;10380;52.102;20.614;2023-08-20T18:32:55;28.50;99.90
20442;DHT22;10380;52.102;20.614;2023-08-20T18:40:19;27.80;99.90
20442;DHT22;10380;52.102;20.614;2023-08-20T18:42:47;27.60;99.90
20442;DHT22;10380;52.102;20.614;2023-08-20T18:50:09;27.00;99.90
20442;DHT22;10380;52.102;20.614;2023-08-20T18:57:32;27.00;99.90
20442;DHT22;10380;52.102;20.614;2023-08-20T19:12:16;26.80;99.90
20442;DHT22;10380;52.102;20.614;2023-08-20T19:19:37;26.40;99.90
20442;DHT22;10380;52.102;20.614;2023-08-20T19:24:32;26.90;99.90
20442;DHT22;10380;52.102;20.614;2023-08-20T19:31:53;26.40;99.90
20442;DHT22;10380;52.102;20.614;2023-08-20T19:34:20;26.40;99.90
20442;DHT22;10380;52.102;20.614;2023-08-20T19:44:09;26.50;99.90
20442;DHT22;10380;52.102;20.614;2023-08-20T19:49:04;26.50;99.90
20442;DHT22;10380;52.102;20.614;2023-08-20T19:56:25;25.90;99.90
20442;DHT22;10380;52.102;20.614;2023-08-20T19:58:53;26.20;99.90
20442;DHT22;10380;52.102;20.614;2023-08-20T20:01:21;26.20;99.90
20442;DHT22;10380;52.102;20.614;2023-08-20T20:13:41;25.70;99.90
20442;DHT22;10380;52.102;20.614;2023-08-20T20:18:35;25.40;99.90
20442;DHT22;10380;52.102;20.614;2023-08-20T20:23:31;25.40;99.90
20442;DHT22;10380;52.102;20.614;2023-08-20T20:25:58;25.50;99.90
20442;DHT22;10380;52.102;20.614;2023-08-20T20:28:26;25.50;99.90
20442;DHT22;10380;52.102;20.614;2023-08-20T20:30:53;25.40;99.90
20442;DHT22;10380;52.102;20.614;2023-08-20T20:33:20;25.70;99.90
20442;DHT22;10380;52.102;20.614;2023-08-20T20:35:56;25.40;99.90
20442;DHT22;10380;52.102;20.614;2023-08-20T20:40:51;25.60;99.90
20442;DHT22;10380;52.102;20.614;2023-08-20T20:43:18;25.50;99.90
20442;DHT22;10380;52.102;20.614;2023-08-20T20:45:54;25.30;99.90
20442;DHT22;10380;52.102;20.614;2023-08-20T20:48:23;25.30;99.90
20442;DHT22;10380;52.102;20.614;2023-08-20T20:50:50;25.00;99.90
20442;DHT22;10380;52.102;20.614;2023-08-20T20:53:17;25.50;99.90
20442;DHT22;10380;52.102;20.614;2023-08-20T21:00:39;24.70;99.90
20442;DHT22;10380;52.102;20.614;2023-08-20T21:03:07;25.00;99.90
20442;DHT22;10380;52.102;20.614;2023-08-20T21:05:34;25.00;99.90
20442;DHT22;10380;52.102;20.614;2023-08-20T21:10:29;24.50;99.90
20442;DHT22;10380;52.102;20.614;2023-08-20T21:12:56;25.10;99.90
20442;DHT22;10380;52.102;20.614;2023-08-20T21:20:18;24.70;99.90
20442;DHT22;10380;52.102;20.614;2023-08-20T21:25:13;24.80;99.90
20442;DHT22;10380;52.102;20.614;2023-08-20T21:30:08;25.00;99.90
20442;DHT22;10380;52.102;20.614;2023-08-20T21:35:04;25.00;99.90
20442;DHT22;10380;52.102;20.614;2023-08-20T21:42:26;24.90;99.90
20442;DHT22;10380;52.102;20.614;2023-08-20T21:47:23;24.80;99.90
20442;DHT22;10380;52.102;20.614;2023-08-20T21:52:17;24.90;99.90
20442;DHT22;10380;52.102;20.614;2023-08-20T21:54:46;24.90;99.90
20442;DHT22;10380;52.102;20.614;2023-08-20T21:57:17;24.70;99.90
20442;DHT22;10380;52.102;20.614;2023-08-20T21:59:50;24.70;99.90
20442;DHT22;10380;52.102;20.614;2023-08-20T22:02:17;24.70;99.90
20442;DHT22;10380;52.102;20.614;2023-08-20T22:04:45;24.70;99.90
20442;DHT22;10380;52.102;20.614;2023-08-20T22:09:39;25.00;99.90
20442;DHT22;10380;52.102;20.614;2023-08-20T22:14:36;24.70;99.90
20442;DHT22;10380;52.102;20.614;2023-08-20T22:17:03;24.60;99.90
20442;DHT22;10380;52.102;20.614;2023-08-20T22:22:03;24.60;99.90
20442;DHT22;10380;52.102;20.614;2023-08-20T22:31:52;24.70;99.90
20442;DHT22;10380;52.102;20.614;2023-08-20T22:34:19;24.90;99.90
20442;DHT22;10380;52.102;20.614;2023-08-20T22:36:46;25.00;99.90
20442;DHT22;10380;52.102;20.614;2023-08-20T22:49:06;24.50;99.90
20442;DHT22;10380;52.102;20.614;2023-08-20T22:51:33;24.00;99.90
20442;DHT22;10380;52.102;20.614;2023-08-20T22:54:00;24.10;99.90
20442;DHT22;10380;52.102;20.614;2023-08-20T23:11:13;23.90;99.90
20442;DHT22;10380;52.102;20.614;2023-08-20T23:13:40;24.20;99.90
20442;DHT22;10380;52.102;20.614;2023-08-20T23:16:07;24.30;99.90
20442;DHT22;10380;52.102;20.614;2023-08-20T23:18:34;23.70;99.90
20442;DHT22;10380;52.102;20.614;2023-08-20T23:21:02;25.60;99.90
20442;DHT22;10380;52.102;20.614;2023-08-20T23:25:57;23.90;99.90
20442;DHT22;10380;52.102;20.614;2023-08-20T23:28:24;26.00;99.90
20442;DHT22;10380;52.102;20.614;2023-08-20T23:30:52;23.70;99.90
20442;DHT22;10380;52.102;20.614;2023-08-20T23:38:14;23.30;99.90
20442;DHT22;10380;52.102;20.614;2023-08-20T23:40:41;23.40;99.90
20442;DHT22;10380;52.102;20.614;2023-08-20T23:48:04;23.70;99.90
